createdAt,value
2018-05-17T00:02:06.564Z,99.90
2018-05-17T00:04:34.069Z,99.90
2018-05-17T00:07:01.584Z,99.90
2018-05-17T00:09:29.089Z,99.90
2018-05-17T00:11:56.624Z,99.90
2018-05-17T00:14:24.900Z,99.90
2018-05-17T00:16:52.432Z,99.90
2018-05-17T00:19:19.927Z,99.90
2018-05-17T00:21:47.453Z,99.90
2018-05-17T00:24:14.953Z,99.90
2018-05-17T00:26:42.490Z,99.90
2018-05-17T00:29:09.985Z,99.90
2018-05-17T00:31:37.540Z,99.90
2018-05-17T00:34:05.040Z,99.90
2018-05-17T00:36:32.651Z,99.90
2018-05-17T00:39:00.179Z,99.90
2018-05-17T00:41:27.696Z,99.90
2018-05-17T00:43:55.967Z,99.90
2018-05-17T00:46:23.502Z,99.90
2018-05-17T00:48:50.995Z,99.90
2018-05-17T00:51:18.520Z,99.90
2018-05-17T00:53:46.019Z,99.90
2018-05-17T00:56:13.543Z,99.90
2018-05-17T00:58:41.807Z,99.90
2018-05-17T01:01:09.327Z,99.90
2018-05-17T01:03:36.823Z,99.90
2018-05-17T01:06:04.358Z,99.90
2018-05-17T01:08:32.620Z,99.90
2018-05-17T01:11:00.143Z,99.90
2018-05-17T01:13:27.643Z,99.90
2018-05-17T01:15:55.194Z,99.90
2018-05-17T01:18:22.717Z,99.90
2018-05-17T01:20:50.982Z,99.90
2018-05-17T01:23:18.506Z,99.90
2018-05-17T01:25:46.021Z,99.90
2018-05-17T01:28:13.545Z,99.90
2018-05-17T01:30:41.068Z,99.90
2018-05-17T01:33:08.588Z,99.90
2018-05-17T01:35:36.084Z,99.90
2018-05-17T01:38:15.507Z,99.90
2018-05-17T01:40:43.026Z,99.90
2018-05-17T01:43:10.552Z,99.90
2018-05-17T01:45:38.051Z,99.90
2018-05-17T01:48:05.575Z,99.90
2018-05-17T01:50:33.837Z,99.90
2018-05-17T01:53:01.360Z,99.90
2018-05-17T01:55:28.935Z,99.90
2018-05-17T01:57:56.521Z,99.90
2018-05-17T02:00:24.759Z,99.90
2018-05-17T02:02:52.579Z,99.90
2018-05-17T02:05:20.131Z,99.90
2018-05-17T02:07:47.652Z,99.90
2018-05-17T02:10:15.143Z,99.90
2018-05-17T02:12:42.663Z,99.90
2018-05-17T02:15:10.164Z,99.90
2018-05-17T02:17:37.685Z,99.90
2018-05-17T02:20:05.184Z,99.90
2018-05-17T02:22:32.712Z,99.90
2018-05-17T02:25:01.014Z,99.90
2018-05-17T02:27:28.552Z,99.90
2018-05-17T02:29:56.063Z,99.90
2018-05-17T02:32:23.585Z,99.90
2018-05-17T02:34:51.119Z,99.90
2018-05-17T02:37:18.607Z,99.90
2018-05-17T02:39:46.126Z,99.90
2018-05-17T02:42:13.625Z,99.90
2018-05-17T02:44:41.140Z,99.90
2018-05-17T02:47:08.660Z,99.90
2018-05-17T02:49:36.189Z,99.90
2018-05-17T02:52:03.703Z,99.90
2018-05-17T02:54:32.001Z,99.90
2018-05-17T02:56:59.524Z,99.90
2018-05-17T02:59:27.036Z,99.90
2018-05-17T03:01:55.312Z,99.90
2018-05-17T03:04:23.619Z,99.90
2018-05-17T03:06:51.127Z,99.90
2018-05-17T03:09:18.664Z,99.90
2018-05-17T03:11:46.164Z,99.90
2018-05-17T03:14:13.690Z,99.90
2018-05-17T03:16:41.953Z,99.90
2018-05-17T03:19:09.493Z,99.90
2018-05-17T03:21:36.992Z,99.90
2018-05-17T03:24:04.523Z,99.90
2018-05-17T03:26:32.018Z,99.90
2018-05-17T03:28:59.539Z,99.90
2018-05-17T03:31:27.096Z,99.90
2018-05-17T03:33:54.622Z,99.90
2018-05-17T03:36:22.117Z,99.90
2018-05-17T03:38:49.650Z,99.90
2018-05-17T03:41:17.191Z,99.90
2018-05-17T03:43:45.460Z,99.90
2018-05-17T03:46:12.976Z,99.90
2018-05-17T03:48:40.483Z,99.90
2018-05-17T03:51:08.039Z,99.90
2018-05-17T03:53:35.537Z,99.90
2018-05-17T03:56:03.052Z,99.90
2018-05-17T03:58:30.551Z,99.90
2018-05-17T04:01:09.935Z,99.90
2018-05-17T04:03:49.330Z,99.90
2018-05-17T04:06:28.618Z,99.90
2018-05-17T04:08:56.138Z,99.90
2018-05-17T04:11:24.431Z,99.90
2018-05-17T04:13:52.711Z,99.90
2018-05-17T04:16:21.002Z,99.90
2018-05-17T04:18:49.263Z,99.90
2018-05-17T04:21:16.808Z,99.90
2018-05-17T04:23:44.303Z,99.90
2018-05-17T04:26:11.851Z,99.90
2018-05-17T04:28:39.357Z,99.90
2018-05-17T04:31:06.893Z,99.90
2018-05-17T04:33:34.408Z,99.90
2018-05-17T04:36:01.936Z,99.90
2018-05-17T04:38:29.443Z,99.90
2018-05-17T04:40:56.975Z,99.90
2018-05-17T04:43:24.511Z,99.90
2018-05-17T04:45:52.823Z,99.90
2018-05-17T04:48:20.320Z,99.90
2018-05-17T04:50:47.863Z,99.90
2018-05-17T04:53:15.383Z,99.90
2018-05-17T04:55:42.897Z,99.90
2018-05-17T04:58:10.400Z,99.90
2018-05-17T05:00:37.921Z,99.90
2018-05-17T05:03:06.201Z,99.90
2018-05-17T05:05:33.720Z,99.90
2018-05-17T05:08:01.213Z,99.90
2018-05-17T05:10:28.735Z,99.90
2018-05-17T05:12:56.263Z,99.90
2018-05-17T05:15:23.792Z,99.90
2018-05-17T05:17:51.335Z,99.90
2018-05-17T05:20:18.840Z,99.90
2018-05-17T05:22:46.364Z,99.90
2018-05-17T05:25:13.879Z,99.90
2018-05-17T05:27:41.423Z,99.90
2018-05-17T05:30:08.919Z,99.90
2018-05-17T05:32:36.455Z,99.90
2018-05-17T05:35:03.962Z,99.90
2018-05-17T05:37:31.564Z,99.90
2018-05-17T05:39:59.789Z,99.90
2018-05-17T05:42:27.324Z,99.90
2018-05-17T05:44:54.864Z,99.90
2018-05-17T05:47:22.392Z,99.90
2018-05-17T05:49:49.896Z,99.90
2018-05-17T05:52:18.200Z,99.90
2018-05-17T05:54:45.707Z,99.90
2018-05-17T05:57:13.223Z,99.90
2018-05-17T05:59:41.493Z,99.90
2018-05-17T06:02:09.020Z,99.90
2018-05-17T06:04:36.559Z,99.90
2018-05-17T06:07:04.835Z,99.90
2018-05-17T06:09:33.104Z,99.90
2018-05-17T06:12:00.625Z,99.90
2018-05-17T06:14:28.120Z,99.90
2018-05-17T06:16:55.643Z,99.90
2018-05-17T06:19:23.175Z,99.90
2018-05-17T06:21:50.707Z,99.90
2018-05-17T06:24:18.203Z,99.90
2018-05-17T06:26:45.695Z,99.90
2018-05-17T06:29:13.225Z,99.90
2018-05-17T06:31:40.723Z,99.90
2018-05-17T06:34:08.268Z,99.90
2018-05-17T06:36:35.771Z,99.90
2018-05-17T06:39:04.912Z,99.90
2018-05-17T06:41:32.416Z,99.90
2018-05-17T06:43:59.964Z,99.90
2018-05-17T06:46:27.448Z,99.90
2018-05-17T06:48:55.738Z,99.90
2018-05-17T06:51:24.052Z,99.90
2018-05-17T06:53:51.591Z,99.90
2018-05-17T06:56:19.857Z,99.90
2018-05-17T06:58:47.377Z,99.90
2018-05-17T07:01:14.965Z,99.90
2018-05-17T07:03:42.887Z,99.90
2018-05-17T07:06:10.371Z,99.90
2018-05-17T07:08:37.907Z,99.90
2018-05-17T07:11:05.415Z,99.90
2018-05-17T07:13:33.691Z,99.90
2018-05-17T07:16:01.187Z,99.90
2018-05-17T07:18:29.570Z,99.90
2018-05-17T07:20:56.991Z,99.90
2018-05-17T07:23:24.527Z,99.90
2018-05-17T07:25:52.033Z,99.90
2018-05-17T07:28:20.337Z,99.90
2018-05-17T07:30:47.832Z,99.90
2018-05-17T07:33:15.353Z,99.90
2018-05-17T07:35:42.896Z,99.90
2018-05-17T07:38:11.188Z,99.90
2018-05-17T07:40:39.455Z,99.90
2018-05-17T07:43:06.979Z,99.90
2018-05-17T07:45:34.496Z,99.90
2018-05-17T07:48:02.027Z,99.90
2018-05-17T07:50:29.523Z,99.90
2018-05-17T07:52:57.023Z,99.90
2018-05-17T07:55:25.337Z,99.90
2018-05-17T07:57:52.830Z,99.90
2018-05-17T08:00:20.354Z,99.90
2018-05-17T08:02:48.611Z,99.90
2018-05-17T08:05:16.147Z,99.90
2018-05-17T08:07:43.641Z,99.90
2018-05-17T08:10:11.155Z,99.90
2018-05-17T08:12:39.419Z,99.90
2018-05-17T08:15:06.961Z,99.90
2018-05-17T08:17:34.455Z,99.90
2018-05-17T08:20:01.972Z,99.90
2018-05-17T08:22:30.239Z,99.90
2018-05-17T08:24:58.543Z,99.90
2018-05-17T08:27:26.831Z,99.90
2018-05-17T08:29:55.115Z,99.90
2018-05-17T08:32:23.395Z,99.90
2018-05-17T08:34:50.920Z,99.90
2018-05-17T08:37:18.432Z,99.90
2018-05-17T08:39:45.951Z,99.90
2018-05-17T08:42:13.471Z,99.90
2018-05-17T08:44:40.992Z,99.90
2018-05-17T08:47:08.514Z,99.90
2018-05-17T08:49:36.093Z,99.90
2018-05-17T08:52:03.601Z,99.90
2018-05-17T08:54:31.140Z,99.90
2018-05-17T08:56:58.671Z,99.90
2018-05-17T08:59:26.215Z,99.90
2018-05-17T09:01:53.786Z,99.80
2018-05-17T09:04:21.319Z,99.70
2018-05-17T09:06:48.849Z,99.60
2018-05-17T09:09:16.339Z,99.50
2018-05-17T09:11:43.928Z,99.20
2018-05-17T09:14:11.440Z,99.00
2018-05-17T09:16:38.985Z,98.60
2018-05-17T09:19:06.524Z,98.30
2018-05-17T09:21:34.051Z,98.20
2018-05-17T09:24:01.557Z,98.00
2018-05-17T09:26:29.080Z,98.00
2018-05-17T09:28:57.338Z,98.00
2018-05-17T09:31:25.626Z,98.00
2018-05-17T09:33:53.898Z,97.90
2018-05-17T09:36:21.424Z,97.90
2018-05-17T09:38:49.697Z,97.80
2018-05-17T09:41:17.294Z,97.80
2018-05-17T09:43:44.778Z,97.60
2018-05-17T09:46:12.314Z,97.90
2018-05-17T09:48:39.846Z,97.10
2018-05-17T09:51:07.376Z,96.90
2018-05-17T09:53:35.646Z,97.00
2018-05-17T09:56:03.969Z,96.80
2018-05-17T09:58:31.474Z,96.80
2018-05-17T10:00:59.069Z,96.90
2018-05-17T10:03:26.597Z,96.10
2018-05-17T10:05:54.112Z,95.40
2018-05-17T10:08:21.615Z,96.30
2018-05-17T10:10:49.897Z,95.40
2018-05-17T10:13:18.167Z,95.30
2018-05-17T10:15:45.680Z,95.20
2018-05-17T10:18:13.205Z,94.80
2018-05-17T10:20:40.858Z,94.80
2018-05-17T10:23:08.398Z,94.80
2018-05-17T10:25:35.890Z,95.60
2018-05-17T10:28:03.412Z,95.10
2018-05-17T10:30:31.671Z,95.00
2018-05-17T10:32:59.183Z,95.00
2018-05-17T10:35:27.452Z,94.90
2018-05-17T10:37:54.971Z,94.80
2018-05-17T10:40:22.473Z,95.00
2018-05-17T10:42:49.995Z,94.60
2018-05-17T10:45:17.487Z,94.30
2018-05-17T10:47:45.028Z,94.70
2018-05-17T10:50:13.295Z,94.30
2018-05-17T10:52:40.829Z,94.30
2018-05-17T10:55:08.325Z,94.60
2018-05-17T10:57:35.878Z,94.70
2018-05-17T11:00:03.382Z,94.20
2018-05-17T11:02:30.929Z,94.90
2018-05-17T11:04:58.411Z,94.80
2018-05-17T11:07:25.957Z,94.70
2018-05-17T11:09:53.456Z,93.80
2018-05-17T11:12:20.987Z,93.70
2018-05-17T11:14:48.491Z,93.90
2018-05-17T11:17:16.021Z,94.10
2018-05-17T11:19:43.533Z,94.30
2018-05-17T11:22:11.089Z,93.90
2018-05-17T11:24:38.615Z,93.60
2018-05-17T11:27:06.887Z,92.80
2018-05-17T11:29:35.375Z,93.40
2018-05-17T11:32:02.896Z,93.40
2018-05-17T11:34:30.427Z,94.00
2018-05-17T11:36:58.708Z,93.10
2018-05-17T11:39:26.243Z,93.10
2018-05-17T11:41:53.748Z,93.40
2018-05-17T11:44:22.052Z,92.60
2018-05-17T11:46:50.319Z,92.10
2018-05-17T11:49:17.857Z,92.10
2018-05-17T11:51:45.356Z,91.70
2018-05-17T11:54:12.884Z,91.70
2018-05-17T11:56:40.390Z,91.70
2018-05-17T11:59:07.925Z,91.70
2018-05-17T12:01:35.479Z,91.70
2018-05-17T12:04:03.019Z,91.70
2018-05-17T12:06:30.520Z,91.40
2018-05-17T12:08:58.063Z,90.60
2018-05-17T12:11:25.583Z,90.20
2018-05-17T12:13:53.119Z,89.30
2018-05-17T12:16:21.424Z,89.30
2018-05-17T12:18:49.739Z,87.60
2018-05-17T12:21:17.263Z,87.70
2018-05-17T12:23:46.983Z,86.90
2018-05-17T12:26:14.491Z,86.80
2018-05-17T12:28:42.797Z,88.40
2018-05-17T12:31:10.325Z,88.50
2018-05-17T12:33:37.857Z,88.00
2018-05-17T12:36:05.368Z,87.20
2018-05-17T12:38:32.964Z,87.40
2018-05-17T12:41:00.447Z,87.40
2018-05-17T12:43:27.983Z,87.60
2018-05-17T12:45:55.495Z,85.70
2018-05-17T12:48:23.006Z,86.10
2018-05-17T12:50:50.699Z,86.20
2018-05-17T12:53:18.124Z,85.00
2018-05-17T12:55:45.651Z,84.80
2018-05-17T12:58:13.152Z,84.30
2018-05-17T13:00:41.440Z,84.90
2018-05-17T13:03:08.961Z,84.80
2018-05-17T13:05:36.483Z,84.40
2018-05-17T13:08:03.980Z,84.70
2018-05-17T13:10:31.504Z,85.10
2018-05-17T13:12:59.848Z,84.20
2018-05-17T13:15:27.354Z,84.10
2018-05-17T13:17:54.843Z,83.40
2018-05-17T13:20:23.128Z,84.10
2018-05-17T13:22:51.402Z,83.00
2018-05-17T13:25:18.922Z,83.00
2018-05-17T13:27:46.430Z,83.10
2018-05-17T13:30:14.032Z,84.20
2018-05-17T13:32:41.528Z,84.40
2018-05-17T13:35:09.045Z,83.60
2018-05-17T13:37:36.590Z,83.80
2018-05-17T13:40:04.836Z,82.30
2018-05-17T13:42:34.064Z,81.20
2018-05-17T13:45:01.608Z,81.20
2018-05-17T13:47:29.149Z,82.00
2018-05-17T13:49:56.668Z,82.00
2018-05-17T13:52:24.951Z,82.00
2018-05-17T13:54:57.889Z,81.70
2018-05-17T13:57:25.396Z,81.60
2018-05-17T13:59:52.943Z,82.00
2018-05-17T14:02:20.553Z,82.70
2018-05-17T14:04:48.736Z,82.90
2018-05-17T14:07:16.274Z,83.00
2018-05-17T14:09:43.848Z,82.20
2018-05-17T14:12:12.088Z,83.80
2018-05-17T14:14:40.358Z,83.00
2018-05-17T14:17:07.886Z,83.00
2018-05-17T14:19:35.382Z,82.70
2018-05-17T14:22:02.895Z,82.80
2018-05-17T14:24:31.165Z,82.20
2018-05-17T14:26:58.707Z,82.20
2018-05-17T14:29:26.210Z,82.30
2018-05-17T14:31:53.741Z,81.20
2018-05-17T14:34:21.247Z,81.80
2018-05-17T14:36:48.859Z,81.60
2018-05-17T14:39:16.372Z,81.90
2018-05-17T14:41:43.908Z,81.30
2018-05-17T14:44:11.414Z,80.60
2018-05-17T14:46:38.986Z,81.30
2018-05-17T14:49:06.484Z,81.10
2018-05-17T14:51:34.008Z,80.10
2018-05-17T14:54:01.508Z,80.60
2018-05-17T14:56:29.053Z,79.20
2018-05-17T14:58:56.549Z,78.20
2018-05-17T15:01:24.070Z,77.80
2018-05-17T15:03:51.936Z,77.30
2018-05-17T15:06:20.210Z,77.50
2018-05-17T15:08:47.826Z,77.40
2018-05-17T15:11:15.353Z,77.80
2018-05-17T15:13:43.285Z,77.40
2018-05-17T15:16:10.801Z,78.20
2018-05-17T15:18:38.331Z,77.90
2018-05-17T15:21:05.836Z,77.90
2018-05-17T15:23:33.367Z,76.70
2018-05-17T15:26:00.863Z,76.20
2018-05-17T15:28:28.387Z,75.80
2018-05-17T15:30:55.924Z,75.00
2018-05-17T15:33:23.465Z,74.70
2018-05-17T15:35:50.968Z,74.70
2018-05-17T15:38:18.500Z,74.20
2018-05-17T15:40:46.056Z,73.80
2018-05-17T15:43:13.911Z,73.50
2018-05-17T15:45:41.455Z,73.90
2018-05-17T15:48:09.810Z,73.60
2018-05-17T15:50:37.331Z,73.50
2018-05-17T15:53:04.876Z,73.40
2018-05-17T15:55:32.392Z,73.40
2018-05-17T15:58:00.675Z,72.60
2018-05-17T16:00:28.943Z,73.10
2018-05-17T16:02:56.476Z,73.10
2018-05-17T16:05:24.013Z,72.60
2018-05-17T16:07:52.280Z,72.20
2018-05-17T16:10:19.823Z,72.20
2018-05-17T16:12:47.335Z,71.80
2018-05-17T16:15:14.996Z,72.70
2018-05-17T16:17:43.172Z,72.40
2018-05-17T16:20:10.707Z,72.40
2018-05-17T16:22:38.207Z,71.70
2018-05-17T16:25:05.753Z,71.40
2018-05-17T16:27:33.252Z,71.70
2018-05-17T16:30:00.806Z,71.40
2018-05-17T16:32:28.317Z,71.00
2018-05-17T16:34:55.873Z,70.80
2018-05-17T16:37:23.453Z,70.40
2018-05-17T16:39:50.983Z,70.60
2018-05-17T16:42:18.481Z,71.60
2018-05-17T16:44:46.001Z,72.30
2018-05-17T16:47:13.511Z,72.20
2018-05-17T16:49:41.076Z,72.20
2018-05-17T16:52:08.571Z,71.90
2018-05-17T16:54:36.895Z,72.30
2018-05-17T16:57:05.156Z,72.30
2018-05-17T16:59:32.688Z,72.20
2018-05-17T17:02:00.192Z,72.30
2018-05-17T17:04:27.712Z,72.20
2018-05-17T17:06:55.285Z,72.10
2018-05-17T17:09:22.752Z,73.00
2018-05-17T17:11:50.249Z,72.60
2018-05-17T17:14:17.800Z,73.00
2018-05-17T17:16:45.368Z,72.80
2018-05-17T17:19:12.876Z,73.50
2018-05-17T17:21:40.392Z,73.20
2018-05-17T17:24:08.653Z,73.80
2018-05-17T17:26:36.168Z,73.80
2018-05-17T17:29:04.443Z,74.10
2018-05-17T17:31:33.822Z,74.30
2018-05-17T17:34:01.342Z,74.30
2018-05-17T17:36:29.064Z,74.70
2018-05-17T17:38:57.267Z,75.40
2018-05-17T17:41:24.778Z,75.30
2018-05-17T17:43:52.287Z,75.60
2018-05-17T17:46:19.809Z,76.00
2018-05-17T17:48:48.103Z,76.40
2018-05-17T17:51:15.635Z,76.40
2018-05-17T17:53:43.123Z,76.70
2018-05-17T17:56:10.696Z,77.00
2018-05-17T17:58:38.985Z,77.00
2018-05-17T18:01:06.536Z,77.00
2018-05-17T18:03:34.045Z,76.90
2018-05-17T18:06:02.453Z,76.80
2018-05-17T18:08:29.960Z,76.80
2018-05-17T18:10:57.535Z,77.00
2018-05-17T18:13:25.055Z,77.40
2018-05-17T18:15:53.360Z,77.90
2018-05-17T18:18:21.762Z,77.80
2018-05-17T18:20:49.275Z,78.00
2018-05-17T18:23:16.800Z,78.10
2018-05-17T18:25:44.350Z,78.30
2018-05-17T18:28:11.855Z,78.10
2018-05-17T18:30:39.385Z,78.80
2018-05-17T18:33:06.927Z,79.00
2018-05-17T18:35:34.680Z,78.90
2018-05-17T18:38:02.261Z,79.00
2018-05-17T18:40:29.868Z,79.00
2018-05-17T18:42:57.391Z,79.00
2018-05-17T18:45:24.895Z,78.60
2018-05-17T18:47:52.442Z,78.90
2018-05-17T18:50:19.976Z,79.60
2018-05-17T18:52:47.487Z,79.60
2018-05-17T18:55:14.999Z,78.90
2018-05-17T18:57:43.288Z,79.50
2018-05-17T19:00:10.876Z,79.50
2018-05-17T19:02:38.403Z,79.80
2018-05-17T19:05:05.875Z,80.10
2018-05-17T19:07:34.261Z,80.80
2018-05-17T19:10:01.844Z,80.80
2018-05-17T19:12:29.358Z,80.90
2018-05-17T19:14:57.631Z,81.70
2018-05-17T19:17:25.945Z,82.10
2018-05-17T19:19:53.571Z,81.90
2018-05-17T19:22:21.111Z,81.80
2018-05-17T19:24:49.391Z,82.80
2018-05-17T19:27:16.935Z,82.80
2018-05-17T19:29:45.218Z,83.50
2018-05-17T19:32:13.500Z,83.50
2018-05-17T19:34:41.042Z,83.50
2018-05-17T19:37:08.665Z,83.20
2018-05-17T19:39:36.143Z,83.80
2018-05-17T19:42:03.644Z,83.90
2018-05-17T19:44:31.167Z,84.10
2018-05-17T19:46:59.436Z,84.70
2018-05-17T19:49:26.984Z,84.70
2018-05-17T19:51:54.484Z,84.50
2018-05-17T19:54:21.997Z,85.80
2018-05-17T19:56:49.504Z,85.60
2018-05-17T19:59:17.032Z,85.30
2018-05-17T20:01:44.524Z,85.80
2018-05-17T20:04:12.039Z,86.20
2018-05-17T20:06:39.540Z,86.80
2018-05-17T20:09:07.054Z,86.40
2018-05-17T20:11:34.551Z,86.80
2018-05-17T20:14:02.067Z,86.70
2018-05-17T20:16:29.590Z,86.40
2018-05-17T20:18:57.116Z,86.70
2018-05-17T20:21:28.193Z,86.50
2018-05-17T20:23:55.720Z,85.80
2018-05-17T20:26:23.988Z,85.80
2018-05-17T20:28:51.559Z,85.80
2018-05-17T20:31:19.056Z,85.70
2018-05-17T20:33:46.595Z,85.70
2018-05-17T20:36:14.135Z,85.70
2018-05-17T20:38:42.635Z,86.30
2018-05-17T20:41:10.159Z,86.60
2018-05-17T20:43:38.530Z,87.40
2018-05-17T20:46:06.833Z,87.60
2018-05-17T20:48:35.127Z,87.70
2018-05-17T20:51:04.139Z,88.10
2018-05-17T20:53:32.456Z,88.30
2018-05-17T20:55:59.972Z,88.30
2018-05-17T20:58:27.495Z,89.10
2018-05-17T21:00:55.020Z,88.60
2018-05-17T21:03:23.315Z,90.10
2018-05-17T21:05:50.840Z,90.10
2018-05-17T21:08:18.355Z,90.50
2018-05-17T21:10:46.656Z,91.20
2018-05-17T21:13:14.924Z,91.20
2018-05-17T21:15:42.441Z,91.20
2018-05-17T21:18:09.963Z,91.50
2018-05-17T21:20:37.503Z,91.90
2018-05-17T21:23:05.011Z,91.80
2018-05-17T21:25:32.558Z,91.80
2018-05-17T21:28:00.076Z,91.70
2018-05-17T21:30:28.457Z,91.60
2018-05-17T21:32:55.929Z,91.60
2018-05-17T21:35:23.471Z,91.60
2018-05-17T21:37:51.743Z,91.70
2018-05-17T21:40:19.298Z,91.70
2018-05-17T21:42:46.824Z,91.80
2018-05-17T21:45:14.359Z,91.60
2018-05-17T21:47:41.897Z,91.70
2018-05-17T21:50:10.192Z,91.60
2018-05-17T21:52:37.699Z,91.60
2018-05-17T21:55:05.228Z,91.30
2018-05-17T21:57:32.730Z,91.00
2018-05-17T22:00:00.248Z,91.00
2018-05-17T22:02:27.771Z,91.00
2018-05-17T22:04:55.325Z,91.00
2018-05-17T22:07:22.876Z,91.00
2018-05-17T22:09:51.170Z,91.00
2018-05-17T22:12:19.456Z,91.00
2018-05-17T22:14:47.726Z,91.00
2018-05-17T22:17:15.255Z,91.00
2018-05-17T22:19:42.818Z,90.80
2018-05-17T22:22:10.366Z,90.80
2018-05-17T22:24:38.702Z,90.90
2018-05-17T22:27:06.239Z,90.90
2018-05-17T22:29:33.762Z,90.90
2018-05-17T22:32:01.284Z,90.90
2018-05-17T22:34:28.830Z,90.90
2018-05-17T22:36:57.145Z,90.80
2018-05-17T22:39:24.655Z,90.80
2018-05-17T22:41:52.957Z,90.60
2018-05-17T22:44:20.478Z,90.60
2018-05-17T22:46:48.009Z,90.00
2018-05-17T22:49:16.297Z,89.60
2018-05-17T22:51:43.868Z,89.60
2018-05-17T22:54:11.338Z,88.90
2018-05-17T22:56:50.613Z,89.60
2018-05-17T22:59:18.890Z,90.10
2018-05-17T23:01:46.460Z,90.10
2018-05-17T23:04:14.044Z,90.40
2018-05-17T23:06:42.329Z,90.20
2018-05-17T23:09:10.620Z,90.10
2018-05-17T23:11:38.911Z,90.00
2018-05-17T23:14:07.176Z,90.10
2018-05-17T23:16:34.753Z,90.10
2018-05-17T23:19:03.055Z,90.00
2018-05-17T23:21:31.320Z,89.70
2018-05-17T23:23:58.846Z,90.00
2018-05-17T23:26:26.340Z,89.90
2018-05-17T23:28:53.887Z,90.10
2018-05-17T23:31:21.383Z,90.10
2018-05-17T23:33:48.900Z,90.20
2018-05-17T23:36:17.192Z,90.10
2018-05-17T23:38:45.487Z,90.00
2018-05-17T23:41:25.670Z,90.00
2018-05-17T23:43:53.187Z,89.90
2018-05-17T23:46:20.684Z,89.40
2018-05-17T23:48:48.218Z,88.50
2018-05-17T23:51:15.720Z,87.10
2018-05-17T23:53:43.312Z,87.10
2018-05-17T23:56:11.572Z,86.90
2018-05-17T23:58:39.089Z,86.80
